createdAt,value
2016-11-27T00:00:51.922Z,4.99
2016-11-27T00:01:51.999Z,5
2016-11-27T00:02:51.959Z,4.92
2016-11-27T00:03:51.984Z,5.02
2016-11-27T00:04:51.990Z,5.02
2016-11-27T00:05:52.014Z,5.04
2016-11-27T00:06:52.081Z,5.1
2016-11-27T00:07:52.046Z,5.13
2016-11-27T00:08:52.062Z,5.13
2016-11-27T00:10:07.002Z,5.13
2016-11-27T00:11:07.020Z,5.1
2016-11-27T00:11:52.115Z,5.1
2016-11-27T00:12:52.135Z,5.07
2016-11-27T00:13:52.151Z,5.18
2016-11-27T00:14:52.172Z,5.12
2016-11-27T00:15:52.239Z,5.27
2016-11-27T00:16:52.207Z,5.22
2016-11-27T00:17:52.223Z,5.22
2016-11-27T00:18:52.242Z,5.25
2016-11-27T00:19:52.282Z,5.24
2016-11-27T00:20:52.270Z,5.21
2016-11-27T00:21:52.291Z,5.2
2016-11-27T00:22:52.307Z,5.27
2016-11-27T00:23:52.325Z,5.3
2016-11-27T00:25:07.316Z,5.31
2016-11-27T00:25:52.355Z,5.33
2016-11-27T00:26:52.376Z,5.24
2016-11-27T00:28:07.316Z,5.31
2016-11-27T00:28:52.414Z,5.36
2016-11-27T00:30:52.445Z,5.33
2016-11-27T00:31:52.469Z,5.33
2016-11-27T00:32:52.483Z,5.3
2016-11-27T00:33:52.500Z,5.28
2016-11-27T00:34:52.514Z,5.3
2016-11-27T00:35:52.535Z,5.24
2016-11-27T00:36:52.558Z,5.22
2016-11-27T00:37:52.596Z,5.35
2016-11-27T00:39:07.511Z,5.3
2016-11-27T00:40:07.556Z,5.36
2016-11-27T00:40:52.624Z,5.39
2016-11-27T00:42:07.561Z,5.36
2016-11-27T00:43:07.578Z,5.33
2016-11-27T00:43:52.675Z,5.35
2016-11-27T00:44:52.693Z,5.36
2016-11-27T00:45:52.711Z,5.43
2016-11-27T00:46:52.731Z,5.43
2016-11-27T00:47:52.744Z,5.46
2016-11-27T00:48:52.764Z,5.42
2016-11-27T00:49:52.780Z,5.49
2016-11-27T00:50:52.798Z,5.48
2016-11-27T00:51:52.811Z,5.46
2016-11-27T00:52:52.829Z,5.4
2016-11-27T00:53:52.849Z,5.49
2016-11-27T00:54:52.865Z,5.45
2016-11-27T00:55:52.885Z,5.45
2016-11-27T00:56:52.900Z,5.4
2016-11-27T00:58:07.841Z,5.45
2016-11-27T00:58:52.939Z,5.51
2016-11-27T01:00:07.876Z,5.57
2016-11-27T01:00:52.972Z,5.46
2016-11-27T01:01:52.994Z,5.49
2016-11-27T01:02:53.005Z,5.49
2016-11-27T01:03:53.026Z,5.49
2016-11-27T01:04:53.044Z,5.48
2016-11-27T01:05:53.061Z,5.51
2016-11-27T01:06:53.077Z,5.54
2016-11-27T01:07:53.096Z,5.56
2016-11-27T01:09:53.131Z,5.58
2016-11-27T01:10:53.152Z,5.49
2016-11-27T01:12:08.088Z,5.6
2016-11-27T01:12:53.186Z,5.56
2016-11-27T01:14:08.126Z,5.53
2016-11-27T01:15:08.139Z,5.51
2016-11-27T01:15:53.231Z,5.58
2016-11-27T01:16:53.307Z,5.63
2016-11-27T01:17:53.270Z,5.65
2016-11-27T01:18:53.284Z,5.58
2016-11-27T01:19:53.307Z,5.65
2016-11-27T01:20:53.327Z,5.61
2016-11-27T01:21:53.345Z,5.71
2016-11-27T01:22:53.364Z,5.63
2016-11-27T01:23:53.376Z,5.61
2016-11-27T01:24:53.395Z,5.68
2016-11-27T01:25:53.410Z,5.65
2016-11-27T01:26:53.430Z,5.6
2016-11-27T01:27:53.444Z,5.65
2016-11-27T01:28:53.466Z,5.64
2016-11-27T01:30:08.403Z,5.68
2016-11-27T01:30:53.500Z,5.64
2016-11-27T01:31:53.525Z,5.78
2016-11-27T01:33:08.456Z,5.68
2016-11-27T01:33:53.562Z,5.56
2016-11-27T01:34:53.574Z,5.68
2016-11-27T01:35:53.591Z,5.6
2016-11-27T01:36:53.605Z,5.63
2016-11-27T01:37:53.623Z,5.71
2016-11-27T01:38:53.648Z,5.75
2016-11-27T01:39:53.659Z,5.68
2016-11-27T01:40:53.682Z,5.82
2016-11-27T01:41:53.698Z,5.79
2016-11-27T01:42:53.712Z,5.82
2016-11-27T01:44:08.656Z,5.79
2016-11-27T01:45:08.677Z,5.86
2016-11-27T01:46:08.688Z,5.83
2016-11-27T01:46:53.784Z,5.81
2016-11-27T01:47:53.805Z,5.79
2016-11-27T01:48:53.825Z,5.86
2016-11-27T01:49:53.896Z,5.82
2016-11-27T01:50:53.860Z,5.91
2016-11-27T01:51:53.879Z,5.89
2016-11-27T01:52:53.892Z,5.9
2016-11-27T01:53:53.907Z,5.93
2016-11-27T01:54:53.931Z,5.9
2016-11-27T01:55:53.948Z,5.86
2016-11-27T01:56:53.966Z,5.86
2016-11-27T01:57:53.985Z,5.9
2016-11-27T01:58:54.000Z,5.91
2016-11-27T01:59:54.024Z,5.93
2016-11-27T02:00:54.046Z,5.91
2016-11-27T02:01:54.068Z,5.9
2016-11-27T02:03:09.010Z,5.91
2016-11-27T02:03:54.092Z,5.93
2016-11-27T02:05:54.127Z,5.79
2016-11-27T02:06:54.147Z,5.82
2016-11-27T02:07:54.164Z,5.9
2016-11-27T02:08:54.183Z,6
2016-11-27T02:09:54.199Z,6
2016-11-27T02:10:54.216Z,6
2016-11-27T02:11:54.233Z,6.01
2016-11-27T02:12:54.255Z,6
2016-11-27T02:14:09.196Z,5.99
2016-11-27T02:14:54.287Z,6.04
2016-11-27T02:15:54.311Z,5.96
2016-11-27T02:17:09.250Z,6.01
2016-11-27T02:17:54.341Z,6.08
2016-11-27T02:18:54.363Z,6.17
2016-11-27T02:19:54.384Z,6.03
2016-11-27T02:20:54.702Z,6
2016-11-27T02:21:54.413Z,6.06
2016-11-27T02:22:54.438Z,6.06
2016-11-27T02:23:54.448Z,6.08
2016-11-27T02:24:54.473Z,6.08
2016-11-27T02:25:54.487Z,6.11
2016-11-27T02:26:54.515Z,6.19
2016-11-27T02:27:54.525Z,6.15
2016-11-27T02:28:54.541Z,6.27
2016-11-27T02:29:54.556Z,6.11
2016-11-27T02:30:54.577Z,6.09
2016-11-27T02:31:54.598Z,6.12
2016-11-27T02:33:09.537Z,6.17
2016-11-27T02:33:54.634Z,6.22
2016-11-27T02:34:54.646Z,6.22
2016-11-27T02:35:54.664Z,6.19
2016-11-27T02:36:54.735Z,6.21
2016-11-27T02:37:54.709Z,6.17
2016-11-27T02:38:54.727Z,6.19
2016-11-27T02:39:54.741Z,6.09
2016-11-27T02:40:54.752Z,6.09
2016-11-27T02:41:54.774Z,6.18
2016-11-27T02:42:54.796Z,6.12
2016-11-27T02:43:54.812Z,6.19
2016-11-27T02:44:54.835Z,6.18
2016-11-27T02:45:54.844Z,6.15
2016-11-27T02:46:54.865Z,6.27
2016-11-27T02:47:54.882Z,6.17
2016-11-27T02:49:09.824Z,6.19
2016-11-27T02:49:54.926Z,6.17
2016-11-27T02:51:09.860Z,6.15
2016-11-27T02:51:54.960Z,6.19
2016-11-27T02:52:54.980Z,6.33
2016-11-27T02:53:54.994Z,6.36
2016-11-27T02:54:55.015Z,6.31
2016-11-27T02:55:55.029Z,6.28
2016-11-27T02:56:55.053Z,6.28
2016-11-27T02:57:55.060Z,6.34
2016-11-27T02:58:55.088Z,6.38
2016-11-27T03:00:55.122Z,6.27
2016-11-27T03:02:55.158Z,6.3
2016-11-27T03:03:55.172Z,6.31
2016-11-27T03:05:10.114Z,6.27
2016-11-27T03:05:55.210Z,6.27
2016-11-27T03:06:55.232Z,6.33
2016-11-27T03:07:55.245Z,6.28
2016-11-27T03:08:55.265Z,6.31
2016-11-27T03:09:55.299Z,6.36
2016-11-27T03:10:55.301Z,6.3
2016-11-27T03:11:55.318Z,6.31
2016-11-27T03:12:55.334Z,6.33
2016-11-27T03:13:55.355Z,6.27
2016-11-27T03:14:55.684Z,6.33
2016-11-27T03:15:55.397Z,6.33
2016-11-27T03:16:55.415Z,6.31
2016-11-27T03:17:55.428Z,6.3
2016-11-27T03:19:10.372Z,6.3
2016-11-27T03:20:10.390Z,6.31
2016-11-27T03:20:55.488Z,6.28
2016-11-27T03:21:55.508Z,6.3
2016-11-27T03:22:55.820Z,6.19
2016-11-27T03:23:55.542Z,6.3
2016-11-27T03:24:55.590Z,6.3
2016-11-27T03:25:55.571Z,6.3
2016-11-27T03:26:55.597Z,6.27
2016-11-27T03:27:55.614Z,6.3
2016-11-27T03:28:55.633Z,6.37
2016-11-27T03:29:55.647Z,6.37
2016-11-27T03:30:55.671Z,6.3
2016-11-27T03:31:55.689Z,6.36
2016-11-27T03:32:55.703Z,6.49
2016-11-27T03:33:55.731Z,6.41
2016-11-27T03:34:56.090Z,6.48
2016-11-27T03:36:10.682Z,6.36
2016-11-27T03:36:55.779Z,6.49
2016-11-27T03:37:55.799Z,6.46
2016-11-27T03:38:55.813Z,6.3
2016-11-27T03:40:55.854Z,6.44
2016-11-27T03:41:55.870Z,6.41
2016-11-27T03:42:55.894Z,6.37
2016-11-27T03:43:55.908Z,6.38
2016-11-27T03:44:55.927Z,6.51
2016-11-27T03:45:55.946Z,6.43
2016-11-27T03:47:55.977Z,6.41
2016-11-27T03:48:55.999Z,6.41
2016-11-27T03:50:10.940Z,6.36
2016-11-27T03:51:10.957Z,6.41
2016-11-27T03:52:10.980Z,6.4
2016-11-27T03:53:56.092Z,6.46
2016-11-27T03:54:56.112Z,6.41
2016-11-27T03:56:56.145Z,6.41
2016-11-27T03:57:56.158Z,6.54
2016-11-27T03:58:56.183Z,6.46
2016-11-27T03:59:56.252Z,6.44
2016-11-27T04:00:56.221Z,6.46
2016-11-27T04:01:56.237Z,6.4
2016-11-27T04:02:56.255Z,6.43
2016-11-27T04:03:56.269Z,6.48
2016-11-27T04:04:56.287Z,6.4
2016-11-27T04:05:56.309Z,6.4
2016-11-27T04:08:11.265Z,6.3
2016-11-27T04:09:11.285Z,6.37
2016-11-27T04:10:11.304Z,6.27
2016-11-27T04:10:56.404Z,6.3
2016-11-27T04:11:56.418Z,6.37
2016-11-27T04:12:56.433Z,6.43
2016-11-27T04:13:56.458Z,6.46
2016-11-27T04:14:56.477Z,6.37
2016-11-27T04:15:56.489Z,6.38
2016-11-27T04:16:56.510Z,6.48
2016-11-27T04:17:56.526Z,6.38
2016-11-27T04:18:56.544Z,6.37
2016-11-27T04:19:56.569Z,6.38
2016-11-27T04:20:56.588Z,6.4
2016-11-27T04:21:56.605Z,6.44
2016-11-27T04:22:56.621Z,6.58
2016-11-27T04:24:11.558Z,6.38
2016-11-27T04:25:11.580Z,6.4
2016-11-27T04:25:56.678Z,6.38
2016-11-27T04:26:56.725Z,6.51
2016-11-27T04:27:56.716Z,6.44
2016-11-27T04:28:56.728Z,6.44
2016-11-27T04:29:56.760Z,6.44
2016-11-27T04:31:56.785Z,6.4
2016-11-27T04:32:56.801Z,6.38
2016-11-27T04:33:57.120Z,6.38
2016-11-27T04:34:56.837Z,6.43
2016-11-27T04:35:56.860Z,6.48
2016-11-27T04:37:11.803Z,6.38
2016-11-27T04:38:11.819Z,6.43
2016-11-27T04:38:56.909Z,6.49
2016-11-27T04:40:11.857Z,6.46
2016-11-27T04:40:56.954Z,6.36
2016-11-27T04:41:56.971Z,6.41
2016-11-27T04:42:57.049Z,6.38
2016-11-27T04:43:57.009Z,6.44
2016-11-27T04:44:57.029Z,6.38
2016-11-27T04:45:57.045Z,6.44
2016-11-27T04:46:57.061Z,6.49
2016-11-27T04:47:57.082Z,6.38
2016-11-27T04:48:57.096Z,6.34
2016-11-27T04:49:57.114Z,6.33
2016-11-27T04:50:57.137Z,6.34
2016-11-27T04:53:57.216Z,6.4
2016-11-27T04:55:12.131Z,6.33
2016-11-27T04:55:57.225Z,6.4
2016-11-27T04:56:57.246Z,6.37
2016-11-27T04:57:57.571Z,6.41
2016-11-27T04:58:57.332Z,6.34
2016-11-27T04:59:57.298Z,6.3
2016-11-27T05:00:57.312Z,6.31
2016-11-27T05:01:57.334Z,6.25
2016-11-27T05:02:57.351Z,6.09
2016-11-27T05:03:57.372Z,6.11
2016-11-27T05:04:57.396Z,6.08
2016-11-27T05:05:57.409Z,6.11
2016-11-27T05:06:57.426Z,6.12
2016-11-27T05:07:57.443Z,6.15
2016-11-27T05:08:57.470Z,6.09
2016-11-27T05:09:57.482Z,6.11
2016-11-27T05:10:57.505Z,6.08
2016-11-27T05:11:57.512Z,6.03
2016-11-27T05:12:57.536Z,6.04
2016-11-27T05:13:57.557Z,5.91
2016-11-27T05:14:57.571Z,5.85
2016-11-27T05:15:57.592Z,5.85
2016-11-27T05:16:57.605Z,5.85
2016-11-27T05:17:57.626Z,5.94
2016-11-27T05:18:57.641Z,5.96
2016-11-27T05:19:57.660Z,5.9
2016-11-27T05:20:57.674Z,5.89
2016-11-27T05:21:57.697Z,5.85
2016-11-27T05:22:57.721Z,5.83
2016-11-27T05:23:57.731Z,5.93
2016-11-27T05:24:57.751Z,5.93
2016-11-27T05:27:12.714Z,5.86
2016-11-27T05:27:57.806Z,5.91
2016-11-27T05:28:57.876Z,5.86
2016-11-27T05:30:12.764Z,5.91
2016-11-27T05:30:57.862Z,5.86
2016-11-27T05:31:57.876Z,5.83
2016-11-27T05:32:58.000Z,5.81
2016-11-27T05:33:57.917Z,5.74
2016-11-27T05:34:57.930Z,5.75
2016-11-27T05:35:57.963Z,5.74
2016-11-27T05:36:57.964Z,5.75
2016-11-27T05:37:57.980Z,5.79
2016-11-27T05:38:58.001Z,5.83
2016-11-27T05:39:58.015Z,5.79
2016-11-27T05:40:58.031Z,5.75
2016-11-27T05:41:58.054Z,5.74
2016-11-27T05:43:12.995Z,5.76
2016-11-27T05:44:13.014Z,5.64
2016-11-27T05:44:58.113Z,5.64
2016-11-27T05:45:58.131Z,5.65
2016-11-27T05:46:58.146Z,5.71
2016-11-27T05:47:58.466Z,5.67
2016-11-27T05:48:58.177Z,5.63
2016-11-27T05:49:58.198Z,5.67
2016-11-27T05:50:58.219Z,5.67
2016-11-27T05:51:58.234Z,5.72
2016-11-27T05:52:58.251Z,5.6
2016-11-27T05:53:58.268Z,5.68
2016-11-27T05:54:58.289Z,5.64
2016-11-27T05:55:58.301Z,5.6
2016-11-27T05:56:58.324Z,5.6
2016-11-27T05:57:58.346Z,5.61
2016-11-27T05:59:13.286Z,5.56
2016-11-27T05:59:58.380Z,5.49
2016-11-27T06:00:58.397Z,5.56
2016-11-27T06:01:58.417Z,5.58
2016-11-27T06:02:58.431Z,5.56
2016-11-27T06:03:58.456Z,5.42
2016-11-27T06:04:58.472Z,5.43
2016-11-27T06:05:58.485Z,5.43
2016-11-27T06:06:58.501Z,5.4
2016-11-27T06:07:58.515Z,5.35
2016-11-27T06:08:58.541Z,5.38
2016-11-27T06:09:58.558Z,5.35
2016-11-27T06:10:58.579Z,5.35
2016-11-27T06:11:58.592Z,5.33
2016-11-27T06:13:13.534Z,5.28
2016-11-27T06:14:13.551Z,5.31
2016-11-27T06:15:13.566Z,5.27
2016-11-27T06:15:58.713Z,5.3
2016-11-27T06:16:58.689Z,5.27
2016-11-27T06:17:58.699Z,5.18
2016-11-27T06:18:58.721Z,5.15
2016-11-27T06:19:58.735Z,5.2
2016-11-27T06:20:58.785Z,5.13
2016-11-27T06:21:58.772Z,5.15
2016-11-27T06:22:58.782Z,5.18
2016-11-27T06:24:13.736Z,5.02
2016-11-27T06:24:58.822Z,5.06
2016-11-27T06:25:59.141Z,5.04
2016-11-27T06:26:58.859Z,5.04
2016-11-27T06:27:58.901Z,4.99
2016-11-27T06:28:58.893Z,4.96
2016-11-27T06:30:13.836Z,4.99
2016-11-27T06:31:13.852Z,4.96
2016-11-27T06:31:58.978Z,4.94
2016-11-27T06:33:13.884Z,4.94
2016-11-27T06:33:58.987Z,5
2016-11-27T06:34:58.995Z,5.03
2016-11-27T06:35:59.022Z,4.97
2016-11-27T06:37:13.968Z,4.88
2016-11-27T06:37:59.052Z,4.86
2016-11-27T06:38:59.069Z,4.91
2016-11-27T06:39:59.094Z,4.84
2016-11-27T06:40:59.103Z,4.89
2016-11-27T06:41:59.119Z,4.78
2016-11-27T06:42:59.145Z,4.84
2016-11-27T06:43:59.160Z,4.78
2016-11-27T06:44:59.172Z,4.89
2016-11-27T06:45:59.205Z,4.8
2016-11-27T06:46:59.236Z,4.8
2016-11-27T06:47:59.232Z,4.7
2016-11-27T06:48:59.252Z,4.72
2016-11-27T06:49:59.263Z,4.75
2016-11-27T06:50:59.284Z,4.85
2016-11-27T06:51:59.299Z,4.84
2016-11-27T06:53:59.369Z,4.78
2016-11-27T06:54:59.355Z,4.77
2016-11-27T06:55:59.372Z,4.72
2016-11-27T06:56:59.384Z,4.84
2016-11-27T06:57:59.407Z,4.73
2016-11-27T06:58:59.430Z,4.7
2016-11-27T06:59:59.443Z,4.85
2016-11-27T07:01:14.382Z,4.85
2016-11-27T07:02:14.398Z,4.8
2016-11-27T07:02:59.505Z,4.75
2016-11-27T07:03:59.591Z,4.78
2016-11-27T07:04:59.533Z,4.75
2016-11-27T07:05:59.547Z,4.84
2016-11-27T07:06:59.567Z,4.78
2016-11-27T07:07:59.578Z,4.82
2016-11-27T07:08:59.600Z,4.84
2016-11-27T07:09:59.613Z,4.75
2016-11-27T07:10:59.636Z,4.7
2016-11-27T07:11:59.650Z,4.78
2016-11-27T07:12:59.669Z,4.7
2016-11-27T07:13:59.691Z,4.75
2016-11-27T07:15:59.720Z,4.85
2016-11-27T07:16:59.745Z,4.91
2016-11-27T07:18:14.678Z,5.04
2016-11-27T07:19:59.796Z,5.1
2016-11-27T07:20:59.813Z,5.1
2016-11-27T07:21:59.827Z,5.17
2016-11-27T07:22:59.847Z,5.17
2016-11-27T07:23:59.863Z,5.22
2016-11-27T07:24:59.908Z,5.27
2016-11-27T07:25:59.907Z,5.27
2016-11-27T07:26:59.916Z,5.22
2016-11-27T07:27:59.940Z,5.33
2016-11-27T07:28:59.952Z,5.27
2016-11-27T07:29:59.972Z,5.3
2016-11-27T07:30:59.986Z,5.24
2016-11-27T07:32:00.008Z,5.24
2016-11-27T07:34:14.961Z,5.28
2016-11-27T07:35:00.055Z,5.28
2016-11-27T07:36:00.080Z,5.21
2016-11-27T07:37:00.095Z,5.2
2016-11-27T07:38:00.116Z,5.24
2016-11-27T07:39:00.136Z,5.3
2016-11-27T07:40:00.155Z,5.3
2016-11-27T07:41:00.174Z,5.3
2016-11-27T07:42:00.183Z,5.3
2016-11-27T07:43:00.202Z,5.27
2016-11-27T07:44:00.222Z,5.36
2016-11-27T07:45:00.242Z,5.4
2016-11-27T07:46:00.255Z,5.4
2016-11-27T07:47:00.315Z,5.46
2016-11-27T07:48:00.288Z,5.46
2016-11-27T07:49:15.235Z,5.4
2016-11-27T07:50:15.250Z,5.43
2016-11-27T07:51:00.386Z,5.45
2016-11-27T07:52:00.410Z,5.39
2016-11-27T07:53:00.381Z,5.38
2016-11-27T07:54:00.397Z,5.36
2016-11-27T07:55:00.424Z,5.33
2016-11-27T07:56:00.440Z,5.36
2016-11-27T07:57:00.504Z,5.35
2016-11-27T07:58:00.476Z,5.35
2016-11-27T07:59:00.488Z,5.3
2016-11-27T08:00:00.508Z,5.31
2016-11-27T08:01:15.451Z,5.33
2016-11-27T08:02:00.546Z,5.2
2016-11-27T08:04:00.578Z,5.18
2016-11-27T08:05:15.523Z,5.24
2016-11-27T08:06:00.625Z,5.21
2016-11-27T08:07:15.555Z,5.24
2016-11-27T08:08:00.651Z,5.22
2016-11-27T08:09:00.673Z,5.17
2016-11-27T08:10:00.689Z,5.17
2016-11-27T08:11:00.707Z,5.13
2016-11-27T08:12:00.724Z,5.15
2016-11-27T08:13:00.748Z,5.17
2016-11-27T08:14:00.756Z,5.27
2016-11-27T08:15:00.786Z,5.3
2016-11-27T08:16:00.798Z,5.27
2016-11-27T08:17:15.740Z,5.24
2016-11-27T08:18:00.831Z,5.24
2016-11-27T08:19:00.851Z,5.3
2016-11-27T08:20:00.871Z,5.21
2016-11-27T08:21:15.811Z,5.21
2016-11-27T08:23:00.925Z,5.33
2016-11-27T08:24:00.939Z,5.35
2016-11-27T08:25:00.958Z,5.25
2016-11-27T08:26:00.980Z,5.31
2016-11-27T08:27:00.999Z,5.28
2016-11-27T08:28:01.018Z,5.36
2016-11-27T08:29:01.034Z,5.35
2016-11-27T08:30:01.051Z,5.35
2016-11-27T08:31:01.070Z,5.38
2016-11-27T08:32:01.083Z,5.42
2016-11-27T08:33:01.102Z,5.45
2016-11-27T08:34:01.120Z,5.36
2016-11-27T08:35:01.138Z,5.42
2016-11-27T08:36:16.085Z,5.51
2016-11-27T08:37:16.102Z,5.4
2016-11-27T08:38:01.196Z,5.48
2016-11-27T08:39:01.219Z,5.4
2016-11-27T08:40:01.236Z,5.48
2016-11-27T08:41:01.254Z,5.56
2016-11-27T08:42:01.272Z,5.51
2016-11-27T08:43:01.335Z,5.45
2016-11-27T08:44:01.303Z,5.54
2016-11-27T08:45:01.329Z,5.49
2016-11-27T08:46:01.341Z,5.54
2016-11-27T08:47:01.359Z,5.54
2016-11-27T08:49:01.398Z,5.68
2016-11-27T08:50:01.421Z,5.54
2016-11-27T08:51:01.433Z,5.56
2016-11-27T08:52:01.506Z,5.58
2016-11-27T08:53:16.394Z,5.61
2016-11-27T08:54:01.502Z,5.57
2016-11-27T08:55:01.518Z,5.71
2016-11-27T08:56:01.529Z,5.68
2016-11-27T08:57:01.552Z,5.71
2016-11-27T08:58:01.567Z,5.78
2016-11-27T09:00:01.605Z,5.76
2016-11-27T09:01:01.622Z,5.79
2016-11-27T09:02:01.646Z,5.81
2016-11-27T09:03:01.659Z,5.81
2016-11-27T09:04:01.730Z,5.93
2016-11-27T09:05:01.699Z,5.9
2016-11-27T09:06:01.715Z,5.9
2016-11-27T09:07:01.734Z,5.85
2016-11-27T09:08:01.753Z,5.81
2016-11-27T09:09:16.695Z,5.85
2016-11-27T09:10:02.099Z,5.85
2016-11-27T09:11:01.812Z,5.82
2016-11-27T09:12:01.829Z,5.83
2016-11-27T09:13:01.849Z,5.89
2016-11-27T09:15:01.884Z,5.82
2016-11-27T09:16:01.903Z,6
2016-11-27T09:17:01.954Z,6.04
2016-11-27T09:18:01.941Z,6.03
2016-11-27T09:19:01.964Z,6.04
2016-11-27T09:20:01.986Z,6.06
2016-11-27T09:21:01.995Z,6.12
2016-11-27T09:22:02.016Z,6.11
2016-11-27T09:23:02.035Z,6.09
2016-11-27T09:24:02.050Z,6.03
2016-11-27T09:25:16.995Z,6.11
2016-11-27T09:26:02.097Z,6.08
2016-11-27T09:27:17.032Z,6
2016-11-27T09:28:02.423Z,6.01
2016-11-27T09:29:02.148Z,5.99
2016-11-27T09:30:02.164Z,5.99
2016-11-27T09:31:02.185Z,6.09
2016-11-27T09:32:02.237Z,6.19
2016-11-27T09:33:02.224Z,6.18
2016-11-27T09:34:02.244Z,6.25
2016-11-27T09:35:02.261Z,6.27
2016-11-27T09:36:02.273Z,6.25
2016-11-27T09:37:02.300Z,6.25
2016-11-27T09:38:17.245Z,6.14
2016-11-27T09:39:02.335Z,6.09
2016-11-27T09:40:17.277Z,6.09
2016-11-27T09:41:17.300Z,6.22
2016-11-27T09:42:02.391Z,6.14
2016-11-27T09:43:02.414Z,6.19
2016-11-27T09:44:02.437Z,6.18
2016-11-27T09:45:02.449Z,6.12
2016-11-27T09:46:02.469Z,6.18
2016-11-27T09:47:02.487Z,6.19
2016-11-27T09:48:02.509Z,6.17
2016-11-27T09:49:02.526Z,6.22
2016-11-27T09:50:02.545Z,6.17
2016-11-27T09:51:02.567Z,6.18
2016-11-27T09:52:02.589Z,6.25
2016-11-27T09:53:17.527Z,6.34
2016-11-27T09:54:02.622Z,6.25
2016-11-27T09:55:02.641Z,6.31
2016-11-27T09:56:02.660Z,6.31
2016-11-27T09:57:02.676Z,6.22
2016-11-27T09:58:02.697Z,6.14
2016-11-27T09:59:02.715Z,6.27
2016-11-27T10:00:02.734Z,6.3
2016-11-27T10:01:02.750Z,6.37
2016-11-27T10:02:02.775Z,6.4
2016-11-27T10:03:02.794Z,6.37
2016-11-27T10:04:02.811Z,6.4
2016-11-27T10:05:02.828Z,6.41
2016-11-27T10:06:02.848Z,6.48
2016-11-27T10:07:02.874Z,6.31
2016-11-27T10:08:02.884Z,6.3
2016-11-27T10:09:17.836Z,6.3
2016-11-27T10:11:02.938Z,6.36
2016-11-27T10:12:17.885Z,6.43
2016-11-27T10:14:02.997Z,6.38
2016-11-27T10:17:03.061Z,6.56
2016-11-27T10:18:03.078Z,6.46
2016-11-27T10:19:03.148Z,6.44
2016-11-27T10:20:03.113Z,6.41
2016-11-27T10:21:03.135Z,6.55
2016-11-27T10:23:03.177Z,6.61
2016-11-27T10:24:03.190Z,6.67
2016-11-27T10:25:03.207Z,6.58
2016-11-27T10:26:03.225Z,6.61
2016-11-27T10:27:03.245Z,6.58
2016-11-27T10:28:18.192Z,6.61
2016-11-27T10:29:03.293Z,6.62
2016-11-27T10:31:03.322Z,6.77
2016-11-27T10:32:03.349Z,6.74
2016-11-27T10:33:03.677Z,6.74
2016-11-27T10:34:03.384Z,6.69
2016-11-27T10:35:03.400Z,6.76
2016-11-27T10:36:03.430Z,6.76
2016-11-27T10:37:18.386Z,6.85
2016-11-27T10:38:03.457Z,6.85
2016-11-27T10:39:03.577Z,6.91
2016-11-27T10:40:03.497Z,6.97
2016-11-27T10:41:03.521Z,6.97
2016-11-27T10:42:18.459Z,7.02
2016-11-27T10:43:03.567Z,6.95
2016-11-27T10:44:18.495Z,6.95
2016-11-27T10:45:18.514Z,6.85
2016-11-27T10:46:03.610Z,6.84
2016-11-27T10:47:03.640Z,6.94
2016-11-27T10:48:03.652Z,6.98
2016-11-27T10:49:03.680Z,7.12
2016-11-27T10:50:03.690Z,7.1
2016-11-27T10:51:03.708Z,7.13
2016-11-27T10:52:03.731Z,7.12
2016-11-27T10:53:03.762Z,7.12
2016-11-27T10:54:03.762Z,7.1
2016-11-27T10:55:03.837Z,7.24
2016-11-27T10:56:03.809Z,7.25
2016-11-27T10:57:03.823Z,7.25
2016-11-27T10:58:03.840Z,7.24
2016-11-27T10:59:03.860Z,7.28
2016-11-27T11:00:18.804Z,7.13
2016-11-27T11:01:03.907Z,7.13
2016-11-27T11:02:03.920Z,6.99
2016-11-27T11:03:03.944Z,6.98
2016-11-27T11:04:03.960Z,7.02
2016-11-27T11:05:03.990Z,6.91
2016-11-27T11:06:04.002Z,6.91
2016-11-27T11:07:19.095Z,6.95
2016-11-27T11:08:04.042Z,6.94
2016-11-27T11:09:04.062Z,6.95
2016-11-27T11:10:04.075Z,7.15
2016-11-27T11:11:04.099Z,7.15
2016-11-27T11:12:04.124Z,7.12
2016-11-27T11:14:04.153Z,6.97
2016-11-27T11:15:19.098Z,6.95
2016-11-27T11:16:19.117Z,7.12
2016-11-27T11:17:19.136Z,7.1
2016-11-27T11:18:04.238Z,7.13
2016-11-27T11:19:04.252Z,7.27
2016-11-27T11:20:04.319Z,7.24
2016-11-27T11:21:04.290Z,7.37
2016-11-27T11:22:04.320Z,7.35
2016-11-27T11:23:04.338Z,7.28
2016-11-27T11:24:04.350Z,7.25
2016-11-27T11:25:04.369Z,7.35
2016-11-27T11:26:04.387Z,7.46
2016-11-27T11:27:04.457Z,7.64
2016-11-27T11:29:04.460Z,7.58
2016-11-27T11:30:04.477Z,7.63
2016-11-27T11:31:04.496Z,7.52
2016-11-27T11:32:04.514Z,7.46
2016-11-27T11:33:04.530Z,7.45
2016-11-27T11:34:04.553Z,7.42
2016-11-27T11:35:04.569Z,7.27
2016-11-27T11:36:04.620Z,7.25
2016-11-27T11:37:04.607Z,7.1
2016-11-27T11:38:04.633Z,7.07
2016-11-27T11:39:04.646Z,7.09
2016-11-27T11:40:04.666Z,6.94
2016-11-27T11:41:04.693Z,6.99
2016-11-27T11:42:04.706Z,6.95
2016-11-27T11:43:04.732Z,6.97
2016-11-27T11:44:05.041Z,7.07
2016-11-27T11:45:04.780Z,6.95
2016-11-27T11:46:04.785Z,6.94
2016-11-27T11:47:19.728Z,6.98
2016-11-27T11:48:04.827Z,6.99
2016-11-27T11:49:19.762Z,6.98
2016-11-27T11:50:04.862Z,7.06
2016-11-27T11:51:04.887Z,7.13
2016-11-27T11:52:04.895Z,7.16
2016-11-27T11:53:04.925Z,7.16
2016-11-27T11:54:04.941Z,7.12
2016-11-27T11:56:04.977Z,7.25
2016-11-27T11:57:04.997Z,7.21
2016-11-27T11:59:05.032Z,7.31
2016-11-27T12:00:05.056Z,7.39
2016-11-27T12:01:05.375Z,7.37
2016-11-27T12:02:05.096Z,7.45
2016-11-27T12:03:20.036Z,7.55
2016-11-27T12:04:05.137Z,7.63
2016-11-27T12:05:05.159Z,7.72
2016-11-27T12:06:05.480Z,7.68
2016-11-27T12:07:05.193Z,7.64
2016-11-27T12:08:05.206Z,7.63
2016-11-27T12:09:05.231Z,7.75
2016-11-27T12:10:05.250Z,7.82
2016-11-27T12:11:05.271Z,7.83
2016-11-27T12:12:05.293Z,7.68
2016-11-27T12:13:05.308Z,7.67
2016-11-27T12:14:05.325Z,7.58
2016-11-27T12:15:05.350Z,7.61
2016-11-27T12:16:05.370Z,7.52
2016-11-27T12:17:05.389Z,7.55
2016-11-27T12:18:05.413Z,7.5
2016-11-27T12:19:20.349Z,7.52
2016-11-27T12:20:05.447Z,7.48
2016-11-27T12:21:05.469Z,7.53
2016-11-27T12:23:05.509Z,7.52
2016-11-27T12:24:05.520Z,7.49
2016-11-27T12:25:05.540Z,7.5
2016-11-27T12:26:05.563Z,7.45
2016-11-27T12:27:05.584Z,7.43
2016-11-27T12:28:05.609Z,7.37
2016-11-27T12:29:05.621Z,7.34
2016-11-27T12:30:05.643Z,7.34
2016-11-27T12:31:05.669Z,7.35
2016-11-27T12:32:20.605Z,7.43
2016-11-27T12:33:05.704Z,7.31
2016-11-27T12:34:05.716Z,7.34
2016-11-27T12:35:20.665Z,7.4
2016-11-27T12:36:05.760Z,7.49
2016-11-27T12:37:05.795Z,7.49
2016-11-27T12:38:05.800Z,7.48
2016-11-27T12:39:05.827Z,7.34
2016-11-27T12:40:05.835Z,7.5
2016-11-27T12:41:05.858Z,7.5
2016-11-27T12:42:05.886Z,7.61
2016-11-27T12:43:05.901Z,7.58
2016-11-27T12:44:05.916Z,7.69
2016-11-27T12:45:20.862Z,7.67
2016-11-27T12:46:06.255Z,7.61
2016-11-27T12:47:05.979Z,7.6
2016-11-27T12:48:05.991Z,7.63
2016-11-27T12:49:06.049Z,7.58
2016-11-27T12:50:20.954Z,7.48
2016-11-27T12:52:06.077Z,7.5
2016-11-27T12:53:06.093Z,7.49
2016-11-27T12:54:06.114Z,7.39
2016-11-27T12:55:06.135Z,7.35
2016-11-27T12:56:06.148Z,7.25
2016-11-27T12:57:06.173Z,7.24
2016-11-27T12:58:06.186Z,7.25
2016-11-27T12:59:06.204Z,7.25
2016-11-27T13:00:06.226Z,7.25
2016-11-27T13:01:06.260Z,7.28
2016-11-27T13:02:06.270Z,7.35
2016-11-27T13:03:06.284Z,7.37
2016-11-27T13:04:06.312Z,7.49
2016-11-27T13:05:06.324Z,7.43
2016-11-27T13:06:06.338Z,7.52
2016-11-27T13:07:06.363Z,7.46
2016-11-27T13:08:06.388Z,7.48
2016-11-27T13:09:06.410Z,7.43
2016-11-27T13:10:06.421Z,7.5
2016-11-27T13:11:06.438Z,7.42
2016-11-27T13:12:06.456Z,7.32
2016-11-27T13:14:06.499Z,7.39
2016-11-27T13:15:06.518Z,7.42
2016-11-27T13:16:06.539Z,7.42
2016-11-27T13:17:06.557Z,7.4
2016-11-27T13:18:06.579Z,7.45
2016-11-27T13:19:06.599Z,7.35
2016-11-27T13:20:06.620Z,7.31
2016-11-27T13:21:06.636Z,7.31
2016-11-27T13:22:21.579Z,7.24
2016-11-27T13:23:06.691Z,7.24
2016-11-27T13:24:06.713Z,7.28
2016-11-27T13:25:06.714Z,7.32
2016-11-27T13:26:06.731Z,7.35
2016-11-27T13:27:06.761Z,7.37
2016-11-27T13:28:06.768Z,7.42
2016-11-27T13:29:06.791Z,7.32
2016-11-27T13:30:06.811Z,7.39
2016-11-27T13:31:21.757Z,7.27
2016-11-27T13:32:06.843Z,7.27
2016-11-27T13:33:21.793Z,7.2
2016-11-27T13:34:21.812Z,7.1
2016-11-27T13:35:06.905Z,7.16
2016-11-27T13:36:06.920Z,7.09
2016-11-27T13:38:21.889Z,7.16
2016-11-27T13:39:06.982Z,7.17
2016-11-27T13:40:06.997Z,7.06
2016-11-27T13:41:07.022Z,7.16
2016-11-27T13:42:07.047Z,7.17
2016-11-27T13:43:07.061Z,7.21
2016-11-27T13:44:07.070Z,7.27
2016-11-27T13:45:07.098Z,7.23
2016-11-27T13:46:07.110Z,7.32
2016-11-27T13:47:07.167Z,7.35
2016-11-27T13:48:07.152Z,7.3
2016-11-27T13:49:07.181Z,7.39
2016-11-27T13:50:07.189Z,7.37
2016-11-27T13:51:22.137Z,7.45
2016-11-27T13:52:22.154Z,7.42
2016-11-27T13:53:07.256Z,7.45
2016-11-27T13:54:22.196Z,7.37
2016-11-27T13:56:07.310Z,7.35
2016-11-27T13:57:07.327Z,7.4
2016-11-27T13:58:07.349Z,7.34
2016-11-27T13:59:07.362Z,7.35
2016-11-27T14:00:07.386Z,7.31
2016-11-27T14:01:07.704Z,7.24